KRMG/RMG METAR and TAF weather

Enter ICAO airport designator
Station Type Date Time Source
KRMG METAR 2021/03/01 02:53 UTC NOAA

KRMG 010253Z AUTO 18006KT 10SM BKN090 22/14 A2993 RMK AO2 SLP128 T02220144 50001


Station Type Date Time Source
KRMG Decoded METAR 2021/03/01 02:53 UTC NOAA

ROME R. B. RUSSELL AIRPORT, GA, United States (KRMG) 34-21N 085-10W 193M
Feb 28, 2021 - 09:53 PM EST / 2021.03.01 0253 UTC
Wind: from the S (180 degrees) at 7 MPH (6 KT):0
Visibility: 10 mile(s):0
Sky conditions: mostly cloudy
Temperature: 72.0 F (22.2 C)
Dew Point: 57.9 F (14.4 C)
Relative Humidity: 61%
Pressure (altimeter): 29.93 in. Hg (1013 hPa)
Pressure tendency: 0.00 inches (0.1 hPa) higher than three hours ago
ob: KRMG 010253Z AUTO 18006KT 10SM BKN090 22/14 A2993 RMK AO2 SLP128 T02220144 50001
cycle: 3

Station Type Date Time Source
KRMG TAF UTC NOAA

Error!

Example: see airport list